createdAt,value
2019-05-21T00:00:19.476Z,30.30
2019-05-21T00:04:28.242Z,36.97
2019-05-21T00:08:30.243Z,30.23
2019-05-21T00:12:34.840Z,26.80
2019-05-21T00:16:39.401Z,38.10
2019-05-21T00:20:44.002Z,30.47
2019-05-21T00:24:48.752Z,26.33
2019-05-21T00:29:29.117Z,27.33
2019-05-21T00:34:09.724Z,30.33
2019-05-21T00:38:52.112Z,34.33
2019-05-21T00:42:56.706Z,32.30
2019-05-21T00:47:01.584Z,30.07
2019-05-21T00:51:06.128Z,38.07
2019-05-21T00:55:10.712Z,31.37
2019-05-21T00:59:15.245Z,33.43
2019-05-21T01:03:19.826Z,30.03
2019-05-21T01:07:24.388Z,28.47
2019-05-21T01:11:28.973Z,28.90
2019-05-21T01:15:33.492Z,31.00
2019-05-21T01:19:38.085Z,29.40
2019-05-21T01:23:42.636Z,28.30
2019-05-21T01:27:47.209Z,33.10
2019-05-21T01:31:51.820Z,29.77
2019-05-21T01:35:56.351Z,29.93
2019-05-21T01:40:00.925Z,32.13
2019-05-21T01:44:05.588Z,28.50
2019-05-21T01:48:10.189Z,29.43
2019-05-21T01:52:14.770Z,38.90
2019-05-21T01:56:19.302Z,29.03
2019-05-21T02:00:23.871Z,36.67
2019-05-21T02:04:28.416Z,34.03
2019-05-21T02:08:32.976Z,29.60
2019-05-21T02:12:37.561Z,30.57
2019-05-21T02:16:42.061Z,28.60
2019-05-21T02:20:46.628Z,29.27
2019-05-21T02:24:51.201Z,30.37
2019-05-21T02:28:55.753Z,28.73
2019-05-21T02:33:00.270Z,32.63
2019-05-21T02:37:06.497Z,28.73
2019-05-21T02:41:11.256Z,32.97
2019-05-21T02:45:16.238Z,32.97
2019-05-21T02:49:20.792Z,30.43
2019-05-21T02:53:25.396Z,32.17
2019-05-21T02:57:40.740Z,29.80
2019-05-21T03:02:04.227Z,32.53
2019-05-21T03:06:14.302Z,32.03
2019-05-21T03:10:15.097Z,30.80
2019-05-21T03:14:19.656Z,33.83
2019-05-21T03:18:24.189Z,33.70
2019-05-21T03:22:28.777Z,35.90
2019-05-21T03:26:33.405Z,35.90
2019-05-21T03:30:37.952Z,38.87
2019-05-21T03:34:42.607Z,32.60
2019-05-21T03:38:47.158Z,41.83
2019-05-21T03:42:51.723Z,37.43
2019-05-21T03:46:56.737Z,39.03
2019-05-21T03:51:01.317Z,41.00
2019-05-21T03:55:06.031Z,37.53
2019-05-21T03:59:10.864Z,39.17
2019-05-21T04:03:15.427Z,42.73
2019-05-21T04:07:19.988Z,40.70
2019-05-21T04:11:24.561Z,46.77
2019-05-21T04:15:30.333Z,44.20
2019-05-21T04:19:37.560Z,46.33
2019-05-21T04:23:42.246Z,47.80
2019-05-21T04:27:46.796Z,44.67
2019-05-21T04:31:51.388Z,51.50
2019-05-21T04:35:55.916Z,46.30
2019-05-21T04:40:02.004Z,46.53
2019-05-21T04:44:06.642Z,46.77
2019-05-21T04:48:11.244Z,46.10
2019-05-21T04:52:16.932Z,46.93
2019-05-21T04:56:21.456Z,47.43
2019-05-21T05:00:26.018Z,43.37
2019-05-21T05:04:30.605Z,47.73
2019-05-21T05:08:35.171Z,48.57
2019-05-21T05:12:39.732Z,46.00
2019-05-21T05:16:44.263Z,50.57
2019-05-21T05:20:48.829Z,45.10
2019-05-21T05:24:53.399Z,48.30
2019-05-21T05:28:57.957Z,47.20
2019-05-21T05:33:02.544Z,55.10
2019-05-21T05:37:07.075Z,48.23
2019-05-21T05:41:11.690Z,52.33
2019-05-21T05:45:16.963Z,46.77
2019-05-21T05:49:26.672Z,49.97
2019-05-21T05:53:31.368Z,45.57
2019-05-21T05:57:35.938Z,48.77
2019-05-21T06:01:40.517Z,40.47
2019-05-21T06:05:45.145Z,43.73
2019-05-21T06:09:50.089Z,46.87
2019-05-21T06:13:55.046Z,39.93
2019-05-21T06:17:59.680Z,39.57
2019-05-21T06:22:05.608Z,34.73
2019-05-21T06:26:10.250Z,47.10
2019-05-21T06:30:15.829Z,39.40
2019-05-21T06:34:20.824Z,40.63
2019-05-21T06:38:25.399Z,33.73
2019-05-21T06:42:30.908Z,32.70
2019-05-21T06:46:36.054Z,36.90
2019-05-21T06:50:41.007Z,34.83
2019-05-21T06:54:45.677Z,33.63
2019-05-21T06:58:50.241Z,33.17
2019-05-21T07:02:54.879Z,34.13
2019-05-21T07:07:00.561Z,27.60
2019-05-21T07:11:05.279Z,30.10
2019-05-21T07:15:09.877Z,27.33
2019-05-21T07:19:14.492Z,25.47
2019-05-21T07:23:19.216Z,21.23
2019-05-21T07:27:23.815Z,19.47
2019-05-21T07:31:28.413Z,20.07
2019-05-21T07:35:33.047Z,12.40
2019-05-21T07:39:37.588Z,15.73
2019-05-21T07:43:42.656Z,15.27
2019-05-21T07:47:47.361Z,16.63
2019-05-21T07:51:52.011Z,17.87
2019-05-21T07:55:56.645Z,18.83
2019-05-21T08:00:01.256Z,17.40
2019-05-21T08:04:05.908Z,17.83
2019-05-21T08:08:10.716Z,19.83
2019-05-21T08:12:35.317Z,24.43
2019-05-21T08:16:21.573Z,25.00
2019-05-21T08:20:26.518Z,28.33
2019-05-21T08:24:32.720Z,27.47
2019-05-21T08:28:37.376Z,29.00
2019-05-21T08:32:41.936Z,32.13
2019-05-21T08:36:46.478Z,29.70
2019-05-21T08:40:51.051Z,30.37
2019-05-21T08:44:55.662Z,36.93
2019-05-21T08:49:00.224Z,33.27
2019-05-21T08:53:04.789Z,25.40
2019-05-21T08:57:09.338Z,23.30
2019-05-21T09:01:13.902Z,24.03
2019-05-21T09:05:18.466Z,24.83
2019-05-21T09:09:24.399Z,17.53
2019-05-21T09:13:28.971Z,17.73
2019-05-21T09:17:33.509Z,14.60
2019-05-21T09:21:38.090Z,18.53
2019-05-21T09:25:42.653Z,13.43
2019-05-21T09:29:47.227Z,15.13
2019-05-21T09:33:51.812Z,16.53
2019-05-21T09:37:56.475Z,15.33
2019-05-21T09:42:01.042Z,15.47
2019-05-21T09:46:05.848Z,15.97
2019-05-21T09:50:11.149Z,14.93
2019-05-21T09:54:15.707Z,16.67
2019-05-21T09:58:28.200Z,14.60
2019-05-21T10:02:33.201Z,12.80
2019-05-21T10:06:37.759Z,15.37
2019-05-21T10:10:42.332Z,13.60
2019-05-21T10:14:46.901Z,11.53
2019-05-21T10:18:51.442Z,14.53
2019-05-21T10:22:56.120Z,12.10
2019-05-21T10:27:03.416Z,14.67
2019-05-21T10:31:07.361Z,17.90
2019-05-21T10:35:11.989Z,14.00
2019-05-21T10:39:16.684Z,14.33
2019-05-21T10:43:21.264Z,12.97
2019-05-21T10:47:25.969Z,16.10
2019-05-21T10:51:30.539Z,13.93
2019-05-21T10:55:35.111Z,15.67
2019-05-21T10:59:39.649Z,16.23
2019-05-21T11:04:03.140Z,22.07
2019-05-21T11:08:24.810Z,20.23
2019-05-21T11:12:14.111Z,19.40
2019-05-21T11:16:18.683Z,20.30
2019-05-21T11:20:23.229Z,20.53
2019-05-21T11:24:27.809Z,20.43
2019-05-21T11:28:32.369Z,20.67
2019-05-21T11:32:36.936Z,18.77
2019-05-21T11:36:41.501Z,17.83
2019-05-21T11:40:50.779Z,16.73
2019-05-21T11:44:52.345Z,18.20
2019-05-21T11:48:56.927Z,17.57
2019-05-21T11:53:01.539Z,16.07
2019-05-21T11:57:06.144Z,16.13
2019-05-21T12:01:10.772Z,15.07
2019-05-21T12:05:15.338Z,15.40
2019-05-21T12:09:20.249Z,14.53
2019-05-21T12:13:24.815Z,17.37
2019-05-21T12:17:29.382Z,14.77
2019-05-21T12:21:33.950Z,15.60
2019-05-21T12:25:38.545Z,18.40
2019-05-21T12:29:43.113Z,13.60
2019-05-21T12:33:47.803Z,16.63
2019-05-21T12:37:52.376Z,13.73
2019-05-21T12:41:56.901Z,14.03
2019-05-21T12:46:01.499Z,15.90
2019-05-21T12:50:06.921Z,13.33
2019-05-21T12:54:11.467Z,12.23
2019-05-21T12:58:17.375Z,12.87
2019-05-21T13:02:21.996Z,9.20
2019-05-21T13:06:26.556Z,10.07
2019-05-21T13:10:31.305Z,9.27
2019-05-21T13:14:35.910Z,12.10
2019-05-21T13:18:43.462Z,10.33
2019-05-21T13:22:47.981Z,9.03
2019-05-21T13:26:52.575Z,9.57
2019-05-21T13:30:57.128Z,12.00
2019-05-21T13:35:02.025Z,12.87
2019-05-21T13:39:09.268Z,11.27
2019-05-21T13:43:13.865Z,13.83
2019-05-21T13:47:18.477Z,10.60
2019-05-21T13:51:23.042Z,10.00
2019-05-21T13:55:27.604Z,9.50
2019-05-21T13:59:32.150Z,10.13
2019-05-21T14:03:36.732Z,13.47
2019-05-21T14:07:41.799Z,14.43
2019-05-21T14:11:46.627Z,13.57
2019-05-21T14:15:51.195Z,15.27
2019-05-21T14:19:55.720Z,15.17
2019-05-21T14:24:00.322Z,14.07
2019-05-21T14:28:05.094Z,15.40
2019-05-21T14:32:09.637Z,17.33
2019-05-21T14:36:14.217Z,16.87
2019-05-21T14:40:31.033Z,18.07
2019-05-21T14:44:26.082Z,17.67
2019-05-21T14:48:30.783Z,18.03
2019-05-21T14:52:35.363Z,18.53
2019-05-21T14:56:39.949Z,23.67
2019-05-21T15:00:44.500Z,17.03
2019-05-21T15:04:49.609Z,19.47
2019-05-21T15:08:54.156Z,14.87
2019-05-21T15:12:58.740Z,17.10
2019-05-21T15:17:03.321Z,15.00
2019-05-21T15:21:19.296Z,16.53
2019-05-21T15:25:23.843Z,14.83
2019-05-21T15:29:28.424Z,16.57
2019-05-21T15:33:33.016Z,12.40
2019-05-21T15:37:37.577Z,15.00
2019-05-21T15:41:43.307Z,13.70
2019-05-21T15:45:47.952Z,11.97
2019-05-21T15:49:53.772Z,12.17
2019-05-21T15:53:58.384Z,12.67
2019-05-21T15:58:03.024Z,12.40
2019-05-21T16:02:07.716Z,13.67
2019-05-21T16:06:12.285Z,12.93
2019-05-21T16:10:16.964Z,12.63
2019-05-21T16:14:23.156Z,13.37
2019-05-21T16:18:28.936Z,14.77
2019-05-21T16:22:33.477Z,13.97
2019-05-21T16:26:38.063Z,14.00
2019-05-21T16:30:42.628Z,15.13
2019-05-21T16:34:47.189Z,16.23
2019-05-21T16:38:51.736Z,15.67
2019-05-21T16:42:56.307Z,16.03
2019-05-21T16:47:00.982Z,19.13
2019-05-21T16:51:05.748Z,18.43
2019-05-21T16:55:11.481Z,13.83
2019-05-21T16:59:16.024Z,11.70
2019-05-21T17:03:20.605Z,11.07
2019-05-21T17:07:25.171Z,10.93
2019-05-21T17:11:29.744Z,12.40
2019-05-21T17:15:34.299Z,12.33
2019-05-21T17:19:38.861Z,11.77
2019-05-21T17:23:43.428Z,12.20
2019-05-21T17:27:48.008Z,10.90
2019-05-21T17:31:52.564Z,11.00
2019-05-21T17:35:57.144Z,11.17
2019-05-21T17:40:01.995Z,12.27
2019-05-21T17:44:06.504Z,12.77
2019-05-21T17:48:11.221Z,13.27
2019-05-21T17:52:15.813Z,11.63
2019-05-21T17:56:20.485Z,12.33
2019-05-21T18:00:37.449Z,12.63
2019-05-21T18:04:42.088Z,10.43
2019-05-21T18:08:47.207Z,12.13
2019-05-21T18:12:51.776Z,10.20
2019-05-21T18:16:56.343Z,11.33
2019-05-21T18:21:02.364Z,12.00
2019-05-21T18:25:07.921Z,13.37
2019-05-21T18:29:12.489Z,12.37
2019-05-21T18:33:17.421Z,12.40
2019-05-21T18:37:22.021Z,10.07
2019-05-21T18:41:26.703Z,12.77
2019-05-21T18:45:31.296Z,11.63
2019-05-21T18:49:35.830Z,16.47
2019-05-21T18:53:40.491Z,11.60
2019-05-21T18:57:45.077Z,13.60
2019-05-21T19:01:49.645Z,12.50
2019-05-21T19:05:54.248Z,12.17
2019-05-21T19:10:00.850Z,13.93
2019-05-21T19:14:05.396Z,13.93
2019-05-21T19:18:09.972Z,13.73
2019-05-21T19:22:14.555Z,16.07
2019-05-21T19:26:19.169Z,13.47
2019-05-21T19:30:23.727Z,13.17
2019-05-21T19:34:28.379Z,17.10
2019-05-21T19:38:32.978Z,14.53
2019-05-21T19:42:52.255Z,14.70
2019-05-21T19:46:43.941Z,12.20
2019-05-21T19:50:48.479Z,15.50
2019-05-21T19:54:53.053Z,14.43
2019-05-21T19:58:57.632Z,15.70
2019-05-21T20:03:02.221Z,15.17
2019-05-21T20:07:09.621Z,12.93
2019-05-21T20:11:16.178Z,18.83
2019-05-21T20:15:21.001Z,17.83
2019-05-21T20:19:26.673Z,14.73
2019-05-21T20:23:31.848Z,17.50
2019-05-21T20:27:37.671Z,18.00
2019-05-21T20:31:42.588Z,19.30
2019-05-21T20:35:47.463Z,16.73
2019-05-21T20:39:52.724Z,15.73
2019-05-21T20:43:59.402Z,17.10
2019-05-21T20:48:05.434Z,18.23
2019-05-21T20:52:18.719Z,15.57
2019-05-21T20:56:18.893Z,17.90
2019-05-21T21:00:43.504Z,18.97
2019-05-21T21:04:48.244Z,17.77
2019-05-21T21:08:52.999Z,19.33
2019-05-21T21:12:58.776Z,20.00
2019-05-21T21:17:03.323Z,18.20
2019-05-21T21:21:07.931Z,19.83
2019-05-21T21:25:13.471Z,20.83
2019-05-21T21:29:18.032Z,20.50
2019-05-21T21:33:23.136Z,22.73
2019-05-21T21:37:27.681Z,18.10
2019-05-21T21:41:32.844Z,18.83
2019-05-21T21:45:37.932Z,20.37
2019-05-21T21:49:42.799Z,19.57
2019-05-21T21:53:47.467Z,24.37
2019-05-21T21:57:52.106Z,21.73
2019-05-21T22:02:01.664Z,19.13
2019-05-21T22:06:09.916Z,20.50
2019-05-21T22:10:14.689Z,19.33
2019-05-21T22:14:20.239Z,21.63
2019-05-21T22:18:25.476Z,23.00
2019-05-21T22:22:30.067Z,23.53
2019-05-21T22:26:35.027Z,23.23
2019-05-21T22:30:39.667Z,23.57
2019-05-21T22:34:44.362Z,20.13
2019-05-21T22:38:48.916Z,23.67
2019-05-21T22:42:53.537Z,20.93
2019-05-21T22:46:58.198Z,21.70
2019-05-21T22:51:02.809Z,26.70
2019-05-21T22:55:08.000Z,22.03
2019-05-21T22:59:12.580Z,21.90
2019-05-21T23:03:17.207Z,23.47
2019-05-21T23:07:21.780Z,26.53
2019-05-21T23:11:26.366Z,25.47
2019-05-21T23:15:30.936Z,23.87
2019-05-21T23:19:35.628Z,25.43
2019-05-21T23:23:41.673Z,29.97
2019-05-21T23:27:46.244Z,26.90
2019-05-21T23:31:50.841Z,29.83
2019-05-21T23:35:55.629Z,29.07
2019-05-21T23:40:01.005Z,30.40
2019-05-21T23:44:06.041Z,29.63
2019-05-21T23:48:12.384Z,28.63
2019-05-21T23:52:17.387Z,29.03
2019-05-21T23:56:22.049Z,31.40
